Terminal Aerodrome Forecast
Issued by NWS Riverton, WY

Home | Current Version | Previous Version | Text Only | Print | Product List | Glossary On
Versions: 1 2 3 4 5 6 7 8 9 10 11 12 13 14 15
526
FTUS45 KRIW 221720
TAFRIW
TAF
KRIW 221720Z 2218/2318 03007KT P6SM VCSH SCT015 OVC040
      TEMPO 2218/2222 5SM -SHRA BKN012 OVC030
     FM222200 34007KT P6SM SCT020 BKN035
     FM230300 02012G20KT 3SM -SHRA SCT005 BKN015
     FM230800 05007KT P6SM VCSH SCT020 BKN030=

USA.gov is the U.S. government's official web portal to all federal, state and local government web resources and services.